createdAt,value
2018-07-16T00:00:21.490Z,1008.67
2018-07-16T00:01:21.529Z,1008.68
2018-07-16T00:02:21.562Z,1008.67
2018-07-16T00:03:21.600Z,1008.68
2018-07-16T00:04:21.627Z,1008.69
2018-07-16T00:05:21.667Z,1008.65
2018-07-16T00:06:21.697Z,1008.65
2018-07-16T00:07:21.734Z,1008.66
2018-07-16T00:08:21.773Z,1008.67
2018-07-16T00:09:21.814Z,1008.64
2018-07-16T00:10:21.839Z,1008.68
2018-07-16T00:11:21.873Z,1008.68
2018-07-16T00:12:21.912Z,1008.63
2018-07-16T00:13:21.988Z,1008.64
2018-07-16T00:14:22.010Z,1008.66
2018-07-16T00:15:22.017Z,1008.64
2018-07-16T00:16:22.049Z,1008.64
2018-07-16T00:17:22.084Z,1008.64
2018-07-16T00:18:22.118Z,1008.64
2018-07-16T00:19:22.154Z,1008.65
2018-07-16T00:20:22.199Z,1008.68
2018-07-16T00:21:22.224Z,1008.65
2018-07-16T00:22:22.255Z,1008.65
2018-07-16T00:23:22.292Z,1008.61
2018-07-16T00:24:22.326Z,1008.63
2018-07-16T00:25:22.362Z,1008.63
2018-07-16T00:26:22.400Z,1008.63
2018-07-16T00:27:22.479Z,1008.62
2018-07-16T00:28:22.466Z,1008.60
2018-07-16T00:29:22.501Z,1008.59
2018-07-16T00:30:22.539Z,1008.57
2018-07-16T00:31:22.578Z,1008.58
2018-07-16T00:32:22.605Z,1008.54
2018-07-16T00:33:22.638Z,1008.50
2018-07-16T00:34:22.684Z,1008.52
2018-07-16T00:35:22.709Z,1008.50
2018-07-16T00:36:22.760Z,1008.49
2018-07-16T00:37:22.780Z,1008.49
2018-07-16T00:38:22.819Z,1008.48
2018-07-16T00:39:22.849Z,1008.47
2018-07-16T00:40:22.884Z,1008.43
2018-07-16T00:41:22.923Z,1008.44
2018-07-16T00:42:22.985Z,1008.44
2018-07-16T00:43:22.987Z,1008.47
2018-07-16T00:44:23.035Z,1008.42
2018-07-16T00:45:23.062Z,1008.41
2018-07-16T00:46:23.092Z,1008.41
2018-07-16T00:47:23.143Z,1008.43
2018-07-16T00:48:23.164Z,1008.41
2018-07-16T00:49:23.201Z,1008.37
2018-07-16T00:50:23.232Z,1008.39
2018-07-16T00:51:23.265Z,1008.37
2018-07-16T00:52:23.301Z,1008.35
2018-07-16T00:53:23.338Z,1008.35
2018-07-16T00:54:23.370Z,1008.35
2018-07-16T00:55:23.407Z,1008.32
2018-07-16T00:56:23.462Z,1008.33
2018-07-16T00:57:23.480Z,1008.31
2018-07-16T00:58:23.509Z,1008.32
2018-07-16T00:59:23.550Z,1008.28
2018-07-16T01:00:23.581Z,1008.29
2018-07-16T01:01:23.667Z,1008.27
2018-07-16T01:02:23.651Z,1008.28
2018-07-16T01:03:23.686Z,1008.24
2018-07-16T01:04:23.726Z,1008.23
2018-07-16T01:05:23.754Z,1008.24
2018-07-16T01:06:23.785Z,1008.25
2018-07-16T01:07:23.826Z,1008.25
2018-07-16T01:08:23.859Z,1008.24
2018-07-16T01:09:23.895Z,1008.26
2018-07-16T01:10:23.928Z,1008.28
2018-07-16T01:11:23.961Z,1008.29
2018-07-16T01:12:23.996Z,1008.27
2018-07-16T01:13:24.030Z,1008.26
2018-07-16T01:14:24.062Z,1008.25
2018-07-16T01:15:24.112Z,1008.26
2018-07-16T01:16:24.135Z,1008.23
2018-07-16T01:17:24.166Z,1008.23
2018-07-16T01:18:24.208Z,1008.21
2018-07-16T01:19:24.236Z,1008.22
2018-07-16T01:20:24.274Z,1008.23
2018-07-16T01:21:24.310Z,1008.22
2018-07-16T01:22:24.343Z,1008.25
2018-07-16T01:23:24.378Z,1008.17
2018-07-16T01:24:24.416Z,1008.18
2018-07-16T01:25:24.449Z,1008.21
2018-07-16T01:26:24.484Z,1008.18
2018-07-16T01:27:24.516Z,1008.20
2018-07-16T01:28:24.548Z,1008.19
2018-07-16T01:29:24.620Z,1008.19
2018-07-16T01:30:24.621Z,1008.21
2018-07-16T01:31:24.655Z,1008.17
2018-07-16T01:32:24.692Z,1008.17
2018-07-16T01:33:24.725Z,1008.17
2018-07-16T01:34:24.761Z,1008.21
2018-07-16T01:35:24.799Z,1008.24
2018-07-16T01:36:24.828Z,1008.20
2018-07-16T01:37:24.871Z,1008.20
2018-07-16T01:38:24.918Z,1008.21
2018-07-16T01:39:24.936Z,1008.18
2018-07-16T01:40:24.974Z,1008.17
2018-07-16T01:41:25.003Z,1008.17
2018-07-16T01:42:25.042Z,1008.16
2018-07-16T01:43:25.072Z,1008.17
2018-07-16T01:44:25.112Z,1008.18
2018-07-16T01:45:25.143Z,1008.14
2018-07-16T01:46:25.178Z,1008.16
2018-07-16T01:47:25.212Z,1008.18
2018-07-16T01:48:25.252Z,1008.19
2018-07-16T01:49:25.280Z,1008.20
2018-07-16T01:50:25.317Z,1008.18
2018-07-16T01:51:25.355Z,1008.17
2018-07-16T01:52:25.385Z,1008.18
2018-07-16T01:53:25.420Z,1008.20
2018-07-16T01:54:25.457Z,1008.19
2018-07-16T01:55:25.490Z,1008.19
2018-07-16T01:56:25.529Z,1008.17
2018-07-16T01:57:25.559Z,1008.18
2018-07-16T01:58:25.593Z,1008.14
2018-07-16T01:59:25.633Z,1008.14
2018-07-16T02:00:25.663Z,1008.16
2018-07-16T02:01:25.699Z,1008.14
2018-07-16T02:02:25.738Z,1008.12
2018-07-16T02:03:25.768Z,1008.14
2018-07-16T02:04:25.805Z,1008.15
2018-07-16T02:05:25.840Z,1008.16
2018-07-16T02:06:25.872Z,1008.16
2018-07-16T02:07:25.905Z,1008.20
2018-07-16T02:08:25.940Z,1008.17
2018-07-16T02:09:25.976Z,1008.14
2018-07-16T02:10:26.011Z,1008.12
2018-07-16T02:11:26.045Z,1008.13
2018-07-16T02:12:26.076Z,1008.13
2018-07-16T02:13:26.119Z,1008.17
2018-07-16T02:14:26.151Z,1008.17
2018-07-16T02:15:26.182Z,1008.12
2018-07-16T02:16:26.218Z,1008.14
2018-07-16T02:17:26.252Z,1008.10
2018-07-16T02:18:26.286Z,1008.14
2018-07-16T02:19:26.322Z,1008.11
2018-07-16T02:20:26.356Z,1008.14
2018-07-16T02:21:26.395Z,1008.09
2018-07-16T02:22:26.455Z,1008.09
2018-07-16T02:23:26.461Z,1008.11
2018-07-16T02:24:26.494Z,1008.06
2018-07-16T02:25:26.529Z,1008.07
2018-07-16T02:26:26.624Z,1008.08
2018-07-16T02:27:26.604Z,1008.09
2018-07-16T02:28:26.637Z,1008.12
2018-07-16T02:29:26.669Z,1008.09
2018-07-16T02:30:26.704Z,1008.11
2018-07-16T02:31:26.736Z,1008.09
2018-07-16T02:32:26.778Z,1008.13
2018-07-16T02:33:26.808Z,1008.14
2018-07-16T02:34:26.836Z,1008.15
2018-07-16T02:35:26.882Z,1008.11
2018-07-16T02:36:26.910Z,1008.11
2018-07-16T02:37:26.948Z,1008.10
2018-07-16T02:38:26.980Z,1008.09
2018-07-16T02:39:27.015Z,1008.10
2018-07-16T02:40:27.053Z,1008.08
2018-07-16T02:41:27.084Z,1008.07
2018-07-16T02:42:27.125Z,1008.12
2018-07-16T02:43:27.155Z,1008.10
2018-07-16T02:44:27.189Z,1008.13
2018-07-16T02:45:27.222Z,1008.08
2018-07-16T02:46:27.258Z,1008.06
2018-07-16T02:47:27.292Z,1008.07
2018-07-16T02:48:27.329Z,1008.08
2018-07-16T02:49:27.357Z,1008.06
2018-07-16T02:50:27.396Z,1008.06
2018-07-16T02:51:27.435Z,1008.07
2018-07-16T02:52:27.466Z,1008.08
2018-07-16T02:53:27.502Z,1008.09
2018-07-16T02:54:27.534Z,1008.05
2018-07-16T02:55:27.569Z,1008.07
2018-07-16T02:56:27.655Z,1008.10
2018-07-16T02:57:27.648Z,1008.10
2018-07-16T02:58:27.675Z,1008.11
2018-07-16T02:59:27.713Z,1008.12
2018-07-16T03:00:27.743Z,1008.11
2018-07-16T03:01:27.779Z,1008.13
2018-07-16T03:02:27.812Z,1008.17
2018-07-16T03:03:27.848Z,1008.19
2018-07-16T03:04:27.876Z,1008.15
2018-07-16T03:05:27.916Z,1008.19
2018-07-16T03:06:27.951Z,1008.19
2018-07-16T03:07:27.984Z,1008.19
2018-07-16T03:08:28.022Z,1008.20
2018-07-16T03:09:28.054Z,1008.18
2018-07-16T03:10:28.099Z,1008.16
2018-07-16T03:11:28.120Z,1008.15
2018-07-16T03:12:28.162Z,1008.19
2018-07-16T03:13:28.192Z,1008.14
2018-07-16T03:14:28.226Z,1008.15
2018-07-16T03:15:28.264Z,1008.16
2018-07-16T03:16:28.302Z,1008.15
2018-07-16T03:17:28.332Z,1008.20
2018-07-16T03:18:28.365Z,1008.20
2018-07-16T03:19:28.400Z,1008.18
2018-07-16T03:20:28.437Z,1008.14
2018-07-16T03:21:28.472Z,1008.20
2018-07-16T03:22:28.503Z,1008.18
2018-07-16T03:23:28.533Z,1008.16
2018-07-16T03:24:28.621Z,1008.19
2018-07-16T03:25:28.620Z,1008.18
2018-07-16T03:26:28.644Z,1008.18
2018-07-16T03:27:28.677Z,1008.18
2018-07-16T03:28:28.711Z,1008.18
2018-07-16T03:29:28.749Z,1008.18
2018-07-16T03:30:28.780Z,1008.16
2018-07-16T03:31:28.815Z,1008.17
2018-07-16T03:32:28.881Z,1008.18
2018-07-16T03:33:28.885Z,1008.17
2018-07-16T03:34:28.918Z,1008.17
2018-07-16T03:35:28.955Z,1008.15
2018-07-16T03:36:28.993Z,1008.15
2018-07-16T03:37:29.025Z,1008.17
2018-07-16T03:38:29.057Z,1008.13
2018-07-16T03:39:29.092Z,1008.12
2018-07-16T03:40:29.133Z,1008.15
2018-07-16T03:41:29.164Z,1008.16
2018-07-16T03:42:29.210Z,1008.14
2018-07-16T03:43:29.229Z,1008.18
2018-07-16T03:44:29.264Z,1008.17
2018-07-16T03:45:29.308Z,1008.18
2018-07-16T03:46:29.338Z,1008.19
2018-07-16T03:47:29.371Z,1008.17
2018-07-16T03:48:29.398Z,1008.19
2018-07-16T03:49:29.438Z,1008.20
2018-07-16T03:50:29.473Z,1008.21
2018-07-16T03:51:29.506Z,1008.17
2018-07-16T03:52:29.545Z,1008.20
2018-07-16T03:53:29.570Z,1008.18
2018-07-16T03:54:29.693Z,1008.20
2018-07-16T03:55:29.649Z,1008.19
2018-07-16T03:56:29.679Z,1008.19
2018-07-16T03:57:29.749Z,1008.21
2018-07-16T03:58:29.766Z,1008.20
2018-07-16T03:59:29.785Z,1008.20
2018-07-16T04:00:29.818Z,1008.19
2018-07-16T04:01:29.865Z,1008.19
2018-07-16T04:02:29.887Z,1008.23
2018-07-16T04:03:29.924Z,1008.22
2018-07-16T04:04:29.954Z,1008.22
2018-07-16T04:05:29.994Z,1008.19
2018-07-16T04:06:30.024Z,1008.16
2018-07-16T04:07:30.068Z,1008.17
2018-07-16T04:08:30.095Z,1008.18
2018-07-16T04:09:30.142Z,1008.16
2018-07-16T04:10:30.164Z,1008.14
2018-07-16T04:11:30.199Z,1008.15
2018-07-16T04:12:30.231Z,1008.15
2018-07-16T04:13:30.266Z,1008.18
2018-07-16T04:14:30.297Z,1008.16
2018-07-16T04:15:30.335Z,1008.20
2018-07-16T04:16:30.369Z,1008.17
2018-07-16T04:17:30.405Z,1008.20
2018-07-16T04:18:30.440Z,1008.18
2018-07-16T04:19:30.477Z,1008.21
2018-07-16T04:20:30.507Z,1008.19
2018-07-16T04:21:30.544Z,1008.16
2018-07-16T04:22:30.585Z,1008.18
2018-07-16T04:23:30.615Z,1008.19
2018-07-16T04:24:30.654Z,1008.16
2018-07-16T04:25:30.675Z,1008.18
2018-07-16T04:26:30.719Z,1008.20
2018-07-16T04:27:30.748Z,1008.17
2018-07-16T04:28:30.784Z,1008.14
2018-07-16T04:29:30.819Z,1008.16
2018-07-16T04:30:30.863Z,1008.12
2018-07-16T04:31:30.888Z,1008.14
2018-07-16T04:32:30.923Z,1008.13
2018-07-16T04:33:30.957Z,1008.15
2018-07-16T04:34:30.992Z,1008.15
2018-07-16T04:35:31.034Z,1008.16
2018-07-16T04:36:31.059Z,1008.15
2018-07-16T04:37:31.095Z,1008.15
2018-07-16T04:38:31.129Z,1008.14
2018-07-16T04:39:31.167Z,1008.20
2018-07-16T04:40:31.200Z,1008.19
2018-07-16T04:41:31.234Z,1008.22
2018-07-16T04:42:31.270Z,1008.20
2018-07-16T04:43:31.300Z,1008.17
2018-07-16T04:44:31.336Z,1008.13
2018-07-16T04:45:31.371Z,1008.15
2018-07-16T04:46:31.409Z,1008.17
2018-07-16T04:47:31.437Z,1008.15
2018-07-16T04:48:31.475Z,1008.17
2018-07-16T04:49:31.508Z,1008.16
2018-07-16T04:50:31.544Z,1008.16
2018-07-16T04:51:31.581Z,1008.15
2018-07-16T04:52:31.612Z,1008.14
2018-07-16T04:53:31.649Z,1008.12
2018-07-16T04:54:31.682Z,1008.10
2018-07-16T04:55:31.716Z,1008.12
2018-07-16T04:56:31.751Z,1008.14
2018-07-16T04:57:31.794Z,1008.12
2018-07-16T04:58:31.819Z,1008.15
2018-07-16T04:59:31.857Z,1008.15
2018-07-16T05:00:31.887Z,1008.12
2018-07-16T05:01:31.922Z,1008.11
2018-07-16T05:02:31.957Z,1008.14
2018-07-16T05:03:31.990Z,1008.15
2018-07-16T05:04:32.025Z,1008.14
2018-07-16T05:05:32.060Z,1008.15
2018-07-16T05:06:32.097Z,1008.16
2018-07-16T05:07:32.134Z,1008.13
2018-07-16T05:08:32.163Z,1008.12
2018-07-16T05:09:32.198Z,1008.12
2018-07-16T05:10:32.234Z,1008.11
2018-07-16T05:11:32.269Z,1008.16
2018-07-16T05:12:32.306Z,1008.15
2018-07-16T05:13:32.336Z,1008.10
2018-07-16T05:14:32.412Z,1008.07
2018-07-16T05:15:32.409Z,1008.05
2018-07-16T05:16:32.439Z,1008.05
2018-07-16T05:17:32.476Z,1008.06
2018-07-16T05:18:32.746Z,1008.04
2018-07-16T05:19:32.545Z,1008.04
2018-07-16T05:20:32.601Z,1008.05
2018-07-16T05:21:32.609Z,1008.02
2018-07-16T05:22:32.649Z,1008.00
2018-07-16T05:23:32.686Z,1007.99
2018-07-16T05:24:32.718Z,1008.03
2018-07-16T05:25:32.753Z,1008.01
2018-07-16T05:26:32.787Z,1008.02
2018-07-16T05:27:32.821Z,1008.01
2018-07-16T05:28:32.856Z,1007.98
2018-07-16T05:29:32.889Z,1007.99
2018-07-16T05:30:32.926Z,1008.01
2018-07-16T05:31:32.977Z,1008.01
2018-07-16T05:32:33.112Z,1008.01
2018-07-16T05:33:33.028Z,1007.99
2018-07-16T05:34:33.063Z,1007.99
2018-07-16T05:35:33.096Z,1007.97
2018-07-16T05:36:33.133Z,1008.00
2018-07-16T05:37:33.166Z,1007.98
2018-07-16T05:38:33.203Z,1007.99
2018-07-16T05:39:33.237Z,1007.98
2018-07-16T05:40:33.276Z,1007.97
2018-07-16T05:41:33.304Z,1007.96
2018-07-16T05:42:33.340Z,1007.96
2018-07-16T05:43:33.374Z,1007.95
2018-07-16T05:44:33.410Z,1007.97
2018-07-16T05:45:33.451Z,1007.97
2018-07-16T05:46:33.475Z,1007.99
2018-07-16T05:47:33.517Z,1007.97
2018-07-16T05:48:33.553Z,1007.95
2018-07-16T05:49:33.583Z,1007.98
2018-07-16T05:50:33.620Z,1008.01
2018-07-16T05:51:33.668Z,1007.98
2018-07-16T05:52:33.690Z,1008.01
2018-07-16T05:53:33.721Z,1007.97
2018-07-16T05:54:33.756Z,1008.02
2018-07-16T05:55:33.800Z,1007.97
2018-07-16T05:56:33.824Z,1008.01
2018-07-16T05:57:33.860Z,1007.97
2018-07-16T05:58:33.898Z,1008.03
2018-07-16T05:59:33.931Z,1007.99
2018-07-16T06:00:33.962Z,1008.01
2018-07-16T06:01:33.998Z,1007.99
2018-07-16T06:02:34.033Z,1008.04
2018-07-16T06:03:34.066Z,1007.96
2018-07-16T06:04:34.102Z,1008.02
2018-07-16T06:05:34.139Z,1008.04
2018-07-16T06:06:34.176Z,1008.05
2018-07-16T06:07:34.208Z,1008.07
2018-07-16T06:08:34.241Z,1008.05
2018-07-16T06:09:34.279Z,1008.04
2018-07-16T06:10:34.311Z,1008.08
2018-07-16T06:11:34.345Z,1008.06
2018-07-16T06:12:34.383Z,1008.11
2018-07-16T06:13:34.415Z,1008.12
2018-07-16T06:14:34.512Z,1008.11
2018-07-16T06:15:34.483Z,1008.07
2018-07-16T06:16:34.527Z,1008.13
2018-07-16T06:17:34.551Z,1008.08
2018-07-16T06:18:34.589Z,1008.10
2018-07-16T06:19:34.620Z,1008.09
2018-07-16T06:20:34.662Z,1008.11
2018-07-16T06:21:34.693Z,1008.10
2018-07-16T06:22:34.730Z,1008.06
2018-07-16T06:23:34.758Z,1008.07
2018-07-16T06:24:34.801Z,1008.09
2018-07-16T06:25:34.830Z,1008.03
2018-07-16T06:26:34.866Z,1008.03
2018-07-16T06:27:34.903Z,1007.98
2018-07-16T06:28:34.937Z,1007.96
2018-07-16T06:29:34.970Z,1007.97
2018-07-16T06:30:35.004Z,1007.95
2018-07-16T06:31:35.040Z,1007.94
2018-07-16T06:32:35.133Z,1007.95
2018-07-16T06:33:35.119Z,1007.93
2018-07-16T06:34:35.146Z,1007.93
2018-07-16T06:35:35.178Z,1007.96
2018-07-16T06:36:35.214Z,1007.99
2018-07-16T06:37:35.251Z,1007.95
2018-07-16T06:38:35.283Z,1007.96
2018-07-16T06:39:35.359Z,1007.97
2018-07-16T06:40:35.473Z,1007.95
2018-07-16T06:41:35.854Z,1007.93
2018-07-16T06:42:35.427Z,1007.97
2018-07-16T06:43:35.468Z,1007.95
2018-07-16T06:44:35.492Z,1007.96
2018-07-16T06:45:35.526Z,1007.93
2018-07-16T06:46:35.564Z,1007.94
2018-07-16T06:47:35.595Z,1007.96
2018-07-16T06:48:35.632Z,1007.93
2018-07-16T06:49:35.666Z,1007.93
2018-07-16T06:50:35.706Z,1007.91
2018-07-16T06:51:35.744Z,1007.95
2018-07-16T06:52:35.770Z,1007.90
2018-07-16T06:53:35.813Z,1007.91
2018-07-16T06:54:35.841Z,1007.88
2018-07-16T06:55:35.876Z,1007.89
2018-07-16T06:56:35.912Z,1007.89
2018-07-16T06:57:35.952Z,1007.88
2018-07-16T06:58:35.981Z,1007.85
2018-07-16T06:59:36.014Z,1007.92
2018-07-16T07:00:36.048Z,1007.90
2018-07-16T07:01:36.084Z,1007.92
2018-07-16T07:02:36.128Z,1007.89
2018-07-16T07:03:36.154Z,1007.92
2018-07-16T07:04:36.190Z,1007.94
2018-07-16T07:05:36.224Z,1007.95
2018-07-16T07:06:36.259Z,1007.96
2018-07-16T07:07:36.295Z,1007.93
2018-07-16T07:08:36.330Z,1007.95
2018-07-16T07:09:36.366Z,1007.97
2018-07-16T07:10:36.398Z,1007.97
2018-07-16T07:11:36.434Z,1007.94
2018-07-16T07:12:36.470Z,1007.95
2018-07-16T07:13:36.502Z,1007.97
2018-07-16T07:14:36.540Z,1007.96
2018-07-16T07:15:36.573Z,1007.99
2018-07-16T07:16:36.608Z,1007.94
2018-07-16T07:17:36.646Z,1007.92
2018-07-16T07:18:36.679Z,1007.93
2018-07-16T07:19:36.711Z,1007.95
2018-07-16T07:20:36.747Z,1007.96
2018-07-16T07:21:36.782Z,1007.99
2018-07-16T07:22:36.818Z,1007.94
2018-07-16T07:23:36.850Z,1007.94
2018-07-16T07:24:36.888Z,1007.94
2018-07-16T07:25:37.069Z,1007.96
2018-07-16T07:26:37.026Z,1007.96
2018-07-16T07:27:36.993Z,1007.89
2018-07-16T07:28:37.033Z,1007.91
2018-07-16T07:29:37.063Z,1007.86
2018-07-16T07:30:37.105Z,1007.90
2018-07-16T07:31:37.134Z,1007.88
2018-07-16T07:32:37.172Z,1007.91
2018-07-16T07:33:37.207Z,1007.89
2018-07-16T07:34:37.237Z,1007.86
2018-07-16T07:35:37.317Z,1007.88
2018-07-16T07:36:37.298Z,1007.90
2018-07-16T07:37:37.341Z,1007.94
2018-07-16T07:38:37.376Z,1007.89
2018-07-16T07:39:37.411Z,1007.90
2018-07-16T07:40:37.449Z,1007.88
2018-07-16T07:41:37.486Z,1007.88
2018-07-16T07:42:37.517Z,1007.87
2018-07-16T07:43:37.552Z,1007.88
2018-07-16T07:44:37.595Z,1007.84
2018-07-16T07:45:37.624Z,1007.84
2018-07-16T07:46:37.657Z,1007.82
2018-07-16T07:47:37.754Z,1007.80
2018-07-16T07:48:37.726Z,1007.78
2018-07-16T07:49:37.763Z,1007.77
2018-07-16T07:50:37.798Z,1007.77
2018-07-16T07:51:37.836Z,1007.78
2018-07-16T07:52:37.869Z,1007.75
2018-07-16T07:53:37.908Z,1007.74
2018-07-16T07:54:38.134Z,1007.75
2018-07-16T07:55:37.977Z,1007.73
2018-07-16T07:56:38.007Z,1007.71
2018-07-16T07:57:38.042Z,1007.72
2018-07-16T07:58:38.094Z,1007.70
2018-07-16T07:59:38.120Z,1007.72
2018-07-16T08:00:38.149Z,1007.70
2018-07-16T08:01:38.181Z,1007.69
2018-07-16T08:02:38.220Z,1007.70
2018-07-16T08:03:38.255Z,1007.70
2018-07-16T08:04:38.289Z,1007.66
2018-07-16T08:05:38.322Z,1007.70
2018-07-16T08:06:38.358Z,1007.66
2018-07-16T08:07:38.393Z,1007.66
2018-07-16T08:08:38.427Z,1007.66
2018-07-16T08:09:38.467Z,1007.65
2018-07-16T08:10:38.505Z,1007.69
2018-07-16T08:11:38.546Z,1007.66
2018-07-16T08:12:38.565Z,1007.68
2018-07-16T08:13:38.656Z,1007.63
2018-07-16T08:14:38.638Z,1007.65
2018-07-16T08:15:38.673Z,1007.65
2018-07-16T08:16:38.702Z,1007.65
2018-07-16T08:17:38.746Z,1007.61
2018-07-16T08:18:38.779Z,1007.61
2018-07-16T08:19:38.813Z,1007.60
2018-07-16T08:20:38.847Z,1007.58
2018-07-16T08:21:38.885Z,1007.59
2018-07-16T08:22:38.928Z,1007.58
2018-07-16T08:23:38.955Z,1007.59
2018-07-16T08:24:38.992Z,1007.58
2018-07-16T08:25:39.023Z,1007.58
2018-07-16T08:26:39.059Z,1007.60
2018-07-16T08:27:39.088Z,1007.58
2018-07-16T08:28:39.192Z,1007.58
2018-07-16T08:29:39.162Z,1007.60
2018-07-16T08:30:39.199Z,1007.61
2018-07-16T08:31:39.235Z,1007.60
2018-07-16T08:32:39.271Z,1007.60
2018-07-16T08:33:39.363Z,1007.61
2018-07-16T08:34:39.335Z,1007.60
2018-07-16T08:35:39.392Z,1007.59
2018-07-16T08:36:39.407Z,1007.60
2018-07-16T08:37:39.442Z,1007.60
2018-07-16T08:38:39.481Z,1007.59
2018-07-16T08:39:39.530Z,1007.62
2018-07-16T08:40:39.549Z,1007.61
2018-07-16T08:41:39.584Z,1007.65
2018-07-16T08:42:39.621Z,1007.65
2018-07-16T08:43:39.651Z,1007.63
2018-07-16T08:44:39.732Z,1007.66
2018-07-16T08:45:39.727Z,1007.63
2018-07-16T08:46:39.759Z,1007.61
2018-07-16T08:47:39.796Z,1007.58
2018-07-16T08:48:39.829Z,1007.60
2018-07-16T08:49:39.864Z,1007.61
2018-07-16T08:50:39.901Z,1007.64
2018-07-16T08:51:39.932Z,1007.60
2018-07-16T08:52:40.028Z,1007.60
2018-07-16T08:53:40.007Z,1007.65
2018-07-16T08:54:40.041Z,1007.62
2018-07-16T08:55:40.077Z,1007.66
2018-07-16T08:56:40.112Z,1007.61
2018-07-16T08:57:40.146Z,1007.64
2018-07-16T08:58:40.178Z,1007.65
2018-07-16T08:59:40.212Z,1007.65
2018-07-16T09:00:40.249Z,1007.66
2018-07-16T09:01:40.284Z,1007.67
2018-07-16T09:02:40.329Z,1007.66
2018-07-16T09:03:40.355Z,1007.65
2018-07-16T09:04:40.390Z,1007.64
2018-07-16T09:05:40.425Z,1007.65
2018-07-16T09:06:40.460Z,1007.62
2018-07-16T09:07:40.493Z,1007.61
2018-07-16T09:08:40.529Z,1007.59
2018-07-16T09:09:40.565Z,1007.56
2018-07-16T09:10:40.599Z,1007.57
2018-07-16T09:11:40.630Z,1007.57
2018-07-16T09:12:40.674Z,1007.58
2018-07-16T09:13:40.799Z,1007.59
2018-07-16T09:14:40.741Z,1007.58
2018-07-16T09:15:40.778Z,1007.55
2018-07-16T09:16:40.802Z,1007.57
2018-07-16T09:17:40.843Z,1007.56
2018-07-16T09:18:40.879Z,1007.55
2018-07-16T09:19:40.917Z,1007.59
2018-07-16T09:20:40.957Z,1007.56
2018-07-16T09:21:40.981Z,1007.55
2018-07-16T09:22:41.023Z,1007.52
2018-07-16T09:23:41.054Z,1007.52
2018-07-16T09:24:41.089Z,1007.52
2018-07-16T09:25:41.125Z,1007.53
2018-07-16T09:26:41.156Z,1007.50
2018-07-16T09:27:41.198Z,1007.51
2018-07-16T09:28:41.229Z,1007.53
2018-07-16T09:29:41.264Z,1007.52
2018-07-16T09:30:41.301Z,1007.53
2018-07-16T09:31:41.351Z,1007.51
2018-07-16T09:32:41.441Z,1007.50
2018-07-16T09:33:41.404Z,1007.52
2018-07-16T09:34:41.444Z,1007.51
2018-07-16T09:35:41.473Z,1007.57
2018-07-16T09:36:41.511Z,1007.53
2018-07-16T09:37:41.545Z,1007.53
2018-07-16T09:38:41.581Z,1007.53
2018-07-16T09:39:41.617Z,1007.53
2018-07-16T09:40:41.651Z,1007.46
2018-07-16T09:41:41.686Z,1007.48
2018-07-16T09:42:41.728Z,1007.48
2018-07-16T09:43:41.755Z,1007.47
2018-07-16T09:44:41.792Z,1007.46
2018-07-16T09:45:41.824Z,1007.45
2018-07-16T09:46:41.876Z,1007.44
2018-07-16T09:47:41.894Z,1007.44
2018-07-16T09:48:41.945Z,1007.45
2018-07-16T09:49:41.982Z,1007.42
2018-07-16T09:50:42.007Z,1007.41
2018-07-16T09:51:42.038Z,1007.42
2018-07-16T09:52:42.070Z,1007.42
2018-07-16T09:53:42.103Z,1007.40
2018-07-16T09:54:42.141Z,1007.37
2018-07-16T09:55:42.176Z,1007.37
2018-07-16T09:56:42.211Z,1007.39
2018-07-16T09:57:42.244Z,1007.32
2018-07-16T09:58:42.286Z,1007.36
2018-07-16T09:59:42.315Z,1007.37
2018-07-16T10:00:42.359Z,1007.35
2018-07-16T10:01:42.417Z,1007.28
2018-07-16T10:02:42.425Z,1007.30
2018-07-16T10:03:42.462Z,1007.32
2018-07-16T10:04:42.498Z,1007.28
2018-07-16T10:05:42.526Z,1007.30
2018-07-16T10:06:42.581Z,1007.28
2018-07-16T10:07:42.600Z,1007.29
2018-07-16T10:08:42.630Z,1007.21
2018-07-16T10:09:42.669Z,1007.23
2018-07-16T10:10:42.700Z,1007.23
2018-07-16T10:11:42.738Z,1007.19
2018-07-16T10:12:42.771Z,1007.20
2018-07-16T10:13:42.829Z,1007.24
2018-07-16T10:14:42.843Z,1007.17
2018-07-16T10:15:42.881Z,1007.13
2018-07-16T10:16:42.918Z,1007.21
2018-07-16T10:17:42.956Z,1007.16
2018-07-16T10:18:43.010Z,1007.16
2018-07-16T10:19:43.014Z,1007.17
2018-07-16T10:20:43.050Z,1007.15
2018-07-16T10:21:43.087Z,1007.11
2018-07-16T10:22:43.129Z,1007.14
2018-07-16T10:23:43.156Z,1007.14
2018-07-16T10:24:43.195Z,1007.14
2018-07-16T10:25:43.260Z,1007.09
2018-07-16T10:26:43.261Z,1007.06
2018-07-16T10:27:43.294Z,1007.06
2018-07-16T10:28:43.334Z,1007.08
2018-07-16T10:29:43.367Z,1007.08
2018-07-16T10:30:43.403Z,1007.07
2018-07-16T10:31:43.439Z,1007.08
2018-07-16T10:32:43.470Z,1007.12
2018-07-16T10:33:43.564Z,1007.10
2018-07-16T10:34:43.547Z,1007.13
2018-07-16T10:35:43.576Z,1007.15
2018-07-16T10:36:43.612Z,1007.10
2018-07-16T10:37:43.646Z,1007.10
2018-07-16T10:38:43.682Z,1007.10
2018-07-16T10:39:43.717Z,1007.09
2018-07-16T10:40:43.757Z,1007.08
2018-07-16T10:41:43.786Z,1007.05
2018-07-16T10:42:43.822Z,1007.08
2018-07-16T10:43:43.861Z,1007.03
2018-07-16T10:44:43.892Z,1007.03
2018-07-16T10:45:43.928Z,1007.04
2018-07-16T10:46:43.964Z,1007.05
2018-07-16T10:47:43.998Z,1007.02
2018-07-16T10:48:44.028Z,1006.99
2018-07-16T10:49:44.083Z,1006.97
2018-07-16T10:50:44.105Z,1007.00
2018-07-16T10:51:44.139Z,1007.04
2018-07-16T10:52:44.172Z,1006.97
2018-07-16T10:53:44.207Z,1006.99
2018-07-16T10:54:44.244Z,1006.98
2018-07-16T10:55:44.281Z,1006.99
2018-07-16T10:56:44.314Z,1007.00
2018-07-16T10:57:44.348Z,1006.97
2018-07-16T10:58:44.382Z,1006.98
2018-07-16T10:59:44.418Z,1007.00
2018-07-16T11:00:44.457Z,1006.93
2018-07-16T11:01:44.487Z,1006.98
2018-07-16T11:02:44.522Z,1006.97
2018-07-16T11:03:44.558Z,1006.95
2018-07-16T11:04:44.593Z,1006.93
2018-07-16T11:05:44.628Z,1006.92
2018-07-16T11:06:44.665Z,1006.95
2018-07-16T11:07:44.697Z,1006.94
2018-07-16T11:08:44.735Z,1006.97
2018-07-16T11:09:44.771Z,1006.97
2018-07-16T11:10:44.803Z,1006.93
2018-07-16T11:11:44.842Z,1006.93
2018-07-16T11:12:44.875Z,1006.94
2018-07-16T11:13:44.908Z,1006.91
2018-07-16T11:14:44.945Z,1006.94
2018-07-16T11:15:44.977Z,1006.94
2018-07-16T11:16:45.033Z,1006.93
2018-07-16T11:17:45.047Z,1006.91
2018-07-16T11:18:45.085Z,1006.93
2018-07-16T11:19:45.118Z,1006.91
2018-07-16T11:20:45.174Z,1006.89
2018-07-16T11:21:45.196Z,1006.86
2018-07-16T11:22:45.223Z,1006.89
2018-07-16T11:23:45.258Z,1006.92
2018-07-16T11:24:45.295Z,1006.87
2018-07-16T11:25:45.328Z,1006.87
2018-07-16T11:26:45.362Z,1006.89
2018-07-16T11:27:45.398Z,1006.89
2018-07-16T11:28:45.447Z,1006.88
2018-07-16T11:29:45.473Z,1006.83
2018-07-16T11:30:45.505Z,1006.86
2018-07-16T11:31:45.541Z,1006.80
2018-07-16T11:32:45.574Z,1006.84
2018-07-16T11:33:45.609Z,1006.77
2018-07-16T11:34:45.649Z,1006.78
2018-07-16T11:35:45.710Z,1006.80
2018-07-16T11:36:45.715Z,1006.83
2018-07-16T11:37:45.750Z,1006.78
2018-07-16T11:38:45.791Z,1006.78
2018-07-16T11:39:45.818Z,1006.76
2018-07-16T11:40:45.857Z,1006.76
2018-07-16T11:41:45.889Z,1006.75
2018-07-16T11:42:45.923Z,1006.74
2018-07-16T11:43:45.959Z,1006.77
2018-07-16T11:44:45.997Z,1006.74
2018-07-16T11:45:46.030Z,1006.75
2018-07-16T11:46:46.068Z,1006.74
2018-07-16T11:47:46.099Z,1006.72
2018-07-16T11:48:46.136Z,1006.72
2018-07-16T11:49:46.169Z,1006.70
2018-07-16T11:50:46.222Z,1006.72
2018-07-16T11:51:46.241Z,1006.68
2018-07-16T11:52:46.274Z,1006.69
2018-07-16T11:53:46.309Z,1006.71
2018-07-16T11:54:46.349Z,1006.64
2018-07-16T11:55:46.408Z,1006.67
2018-07-16T11:56:46.415Z,1006.61
2018-07-16T11:57:46.453Z,1006.62
2018-07-16T11:58:46.512Z,1006.55
2018-07-16T11:59:46.520Z,1006.58
2018-07-16T12:00:46.557Z,1006.55
2018-07-16T12:01:46.641Z,1006.57
2018-07-16T12:02:46.626Z,1006.55
2018-07-16T12:03:46.661Z,1006.53
2018-07-16T12:04:46.696Z,1006.50
2018-07-16T12:05:46.732Z,1006.56